createdAt,value
2023-04-12T00:01:04.328Z,9.00
2023-04-12T00:03:34.362Z,9.00
2023-04-12T00:06:03.799Z,9.00
2023-04-12T00:08:33.875Z,9.00
2023-04-12T00:11:02.419Z,8.90
2023-04-12T00:13:30.476Z,8.90
2023-04-12T00:15:57.342Z,8.90
2023-04-12T00:18:25.637Z,8.90
2023-04-12T00:20:53.331Z,9.00
2023-04-12T00:23:20.761Z,8.90
2023-04-12T00:25:48.145Z,8.90
2023-04-12T00:28:16.059Z,8.90
2023-04-12T00:30:43.151Z,8.90
2023-04-12T00:33:09.988Z,8.90
2023-04-12T00:35:36.907Z,8.90
2023-04-12T00:38:06.269Z,8.90
2023-04-12T00:40:33.327Z,8.80
2023-04-12T00:43:01.008Z,8.80
2023-04-12T00:45:27.901Z,8.80
2023-04-12T00:47:56.429Z,8.80
2023-04-12T00:50:24.107Z,8.80
2023-04-12T00:52:52.116Z,8.70
2023-04-12T00:55:19.081Z,8.80
2023-04-12T00:57:46.862Z,8.80
2023-04-12T01:00:14.192Z,8.70
2023-04-12T01:02:50.722Z,8.80
2023-04-12T01:05:23.663Z,8.70
2023-04-12T01:08:15.043Z,8.70
2023-04-12T01:10:49.373Z,8.80
2023-04-12T01:13:30.774Z,8.80
2023-04-12T01:16:24.345Z,8.70
2023-04-12T01:18:52.913Z,8.80
2023-04-12T01:21:44.950Z,8.70
2023-04-12T01:24:17.609Z,8.70
2023-04-12T01:26:46.929Z,8.70
2023-04-12T01:29:16.705Z,8.70
2023-04-12T01:32:03.942Z,8.70
2023-04-12T01:34:33.393Z,8.70
2023-04-12T01:37:03.171Z,8.70
2023-04-12T01:39:32.661Z,8.70
2023-04-12T01:41:59.506Z,8.70
2023-04-12T01:44:26.524Z,8.70
2023-04-12T01:46:53.817Z,8.70
2023-04-12T01:49:25.758Z,8.70
2023-04-12T01:52:03.515Z,8.70
2023-04-12T01:54:34.551Z,8.70
2023-04-12T01:57:03.734Z,8.80
2023-04-12T01:59:40.806Z,8.70
2023-04-12T02:02:09.199Z,8.80
2023-04-12T02:04:37.533Z,8.80
2023-04-12T02:07:04.761Z,8.70
2023-04-12T02:09:38.037Z,8.80
2023-04-12T02:12:06.727Z,8.80
2023-04-12T02:14:33.726Z,8.80
2023-04-12T02:17:02.525Z,8.80
2023-04-12T02:19:29.465Z,8.80
2023-04-12T02:21:56.286Z,8.80
2023-04-12T02:24:23.331Z,8.80
2023-04-12T02:26:50.201Z,8.80
2023-04-12T02:29:17.666Z,8.80
2023-04-12T02:31:44.442Z,8.80
2023-04-12T02:34:13.469Z,8.80
2023-04-12T02:36:40.345Z,8.80
2023-04-12T02:39:07.837Z,8.80
2023-04-12T02:41:34.922Z,8.80
2023-04-12T02:44:02.027Z,8.80
2023-04-12T02:46:29.147Z,8.70
2023-04-12T02:48:56.035Z,8.70
2023-04-12T02:51:22.915Z,8.80
2023-04-12T02:53:50.304Z,8.80
2023-04-12T02:56:19.181Z,8.80
2023-04-12T02:58:46.352Z,8.80
2023-04-12T03:01:14.685Z,8.80
2023-04-12T03:03:41.979Z,8.80
2023-04-12T03:06:09.585Z,8.80
2023-04-12T03:08:36.540Z,8.80
2023-04-12T03:11:03.400Z,8.80
2023-04-12T03:13:30.293Z,8.80
2023-04-12T03:16:00.026Z,8.80
2023-04-12T03:18:27.006Z,8.90
2023-04-12T03:20:54.051Z,8.90
2023-04-12T03:23:20.912Z,8.90
2023-04-12T03:25:47.905Z,8.90
2023-04-12T03:28:14.872Z,8.90
2023-04-12T03:30:41.690Z,8.90
2023-04-12T03:33:08.621Z,9.00
2023-04-12T03:35:35.779Z,9.00
2023-04-12T03:38:02.761Z,8.90
2023-04-12T03:40:29.573Z,9.00
2023-04-12T03:42:56.521Z,9.00
2023-04-12T03:45:24.195Z,9.10
2023-04-12T03:47:51.286Z,9.10
2023-04-12T03:50:18.224Z,9.10
2023-04-12T03:52:45.058Z,9.10
2023-04-12T03:55:13.670Z,9.10
2023-04-12T03:57:41.806Z,9.20
2023-04-12T04:00:09.085Z,9.20
2023-04-12T04:02:36.932Z,9.20
2023-04-12T04:05:04.979Z,9.10
2023-04-12T04:07:31.993Z,9.20
2023-04-12T04:09:59.833Z,9.20
2023-04-12T04:12:28.040Z,9.20
2023-04-12T04:14:54.927Z,9.20
2023-04-12T04:17:21.733Z,9.30
2023-04-12T04:19:49.773Z,9.30
2023-04-12T04:22:17.849Z,9.30
2023-04-12T04:24:44.748Z,9.30
2023-04-12T04:27:11.522Z,9.30
2023-04-12T04:29:44.492Z,9.30
2023-04-12T04:32:12.781Z,9.20
2023-04-12T04:34:40.312Z,9.30
2023-04-12T04:37:07.575Z,9.30
2023-04-12T04:39:34.364Z,9.30
2023-04-12T04:42:01.156Z,9.30
2023-04-12T04:44:27.956Z,9.30
2023-04-12T04:46:54.692Z,9.30
2023-04-12T04:49:21.689Z,9.40
2023-04-12T04:51:48.653Z,9.30
2023-04-12T04:54:16.709Z,9.30
2023-04-12T04:56:43.569Z,9.30
2023-04-12T04:59:10.433Z,9.30
2023-04-12T05:01:37.588Z,9.30
2023-04-12T05:04:04.591Z,9.30
2023-04-12T05:06:32.663Z,9.30
2023-04-12T05:09:01.654Z,9.30
2023-04-12T05:11:28.493Z,9.30
2023-04-12T05:13:55.327Z,9.30
2023-04-12T05:16:22.340Z,9.40
2023-04-12T05:18:49.242Z,9.40
2023-04-12T05:21:16.065Z,9.40
2023-04-12T05:23:45.884Z,9.40
2023-04-12T05:26:12.951Z,9.30
2023-04-12T05:28:39.786Z,9.40
2023-04-12T05:31:07.328Z,9.40
2023-04-12T05:33:34.682Z,9.50
2023-04-12T05:36:01.726Z,9.50
2023-04-12T05:38:28.725Z,9.50
2023-04-12T05:40:55.508Z,9.50
2023-04-12T05:43:22.412Z,9.50
2023-04-12T05:45:51.437Z,9.50
2023-04-12T05:48:19.400Z,9.50
2023-04-12T05:50:53.966Z,9.50
2023-04-12T05:53:22.161Z,9.60
2023-04-12T05:55:49.103Z,9.60
2023-04-12T05:58:15.973Z,9.60
2023-04-12T06:00:42.871Z,9.50
2023-04-12T06:03:11.699Z,9.60
2023-04-12T06:05:39.549Z,9.60
2023-04-12T06:08:06.670Z,9.50
2023-04-12T06:10:33.524Z,9.50
2023-04-12T06:13:00.358Z,9.70
2023-04-12T06:15:27.305Z,9.70
2023-04-12T06:17:54.491Z,9.70
2023-04-12T06:20:21.407Z,9.80
2023-04-12T06:22:48.349Z,9.70
2023-04-12T06:25:16.586Z,9.70
2023-04-12T06:27:44.038Z,9.60
2023-04-12T06:30:11.374Z,9.70
2023-04-12T06:32:38.734Z,9.70
2023-04-12T06:35:06.450Z,9.70
2023-04-12T06:37:33.469Z,9.70
2023-04-12T06:40:00.441Z,9.60
2023-04-12T06:42:27.354Z,9.70
2023-04-12T06:44:54.219Z,9.70
2023-04-12T06:47:22.907Z,9.80
2023-04-12T06:49:52.796Z,9.80
2023-04-12T06:52:23.863Z,9.70
2023-04-12T06:54:50.720Z,9.80
2023-04-12T06:57:17.792Z,9.80
2023-04-12T06:59:44.802Z,9.80
2023-04-12T07:02:12.119Z,9.80
2023-04-12T07:04:39.001Z,9.90
2023-04-12T07:07:06.841Z,9.90
2023-04-12T07:09:33.820Z,9.80
2023-04-12T07:12:02.405Z,9.90
2023-04-12T07:14:29.373Z,10.00
2023-04-12T07:16:56.167Z,10.00
2023-04-12T07:19:22.974Z,10.20
2023-04-12T07:21:49.819Z,10.40
2023-04-12T07:24:16.607Z,10.40
2023-04-12T07:26:43.550Z,10.50
2023-04-12T07:29:10.358Z,10.40
2023-04-12T07:31:37.184Z,10.30
2023-04-12T07:34:04.288Z,10.50
2023-04-12T07:36:31.424Z,10.40
2023-04-12T07:38:58.909Z,10.50
2023-04-12T07:41:25.995Z,10.40
2023-04-12T07:43:52.896Z,10.50
2023-04-12T07:46:19.808Z,10.60
2023-04-12T07:48:46.914Z,10.80
2023-04-12T07:51:13.732Z,10.90
2023-04-12T07:53:42.035Z,10.90
2023-04-12T07:56:09.262Z,10.70
2023-04-12T07:58:36.260Z,10.90
2023-04-12T08:01:03.229Z,11.00
2023-04-12T08:03:30.408Z,11.00
2023-04-12T08:05:57.501Z,11.20
2023-04-12T08:08:26.132Z,11.30
2023-04-12T08:10:53.288Z,11.00
2023-04-12T08:13:20.557Z,11.00
2023-04-12T08:15:48.109Z,11.00
2023-04-12T08:18:15.442Z,11.00
2023-04-12T08:20:44.315Z,11.00
2023-04-12T08:23:11.825Z,11.00
2023-04-12T08:25:39.084Z,11.00
2023-04-12T08:28:08.125Z,11.00
2023-04-12T08:30:35.396Z,10.80
2023-04-12T08:33:02.430Z,10.70
2023-04-12T08:35:29.582Z,10.90
2023-04-12T08:37:56.865Z,10.90
2023-04-12T08:40:23.719Z,10.70
2023-04-12T08:42:52.829Z,10.60
2023-04-12T08:45:21.363Z,10.80
2023-04-12T08:47:48.284Z,10.90
2023-04-12T08:50:15.538Z,11.00
2023-04-12T08:52:43.458Z,11.20
2023-04-12T08:55:11.262Z,11.20
2023-04-12T08:57:41.369Z,11.20
2023-04-12T09:00:09.709Z,11.10
2023-04-12T09:02:38.537Z,11.20
2023-04-12T09:05:07.124Z,10.90
2023-04-12T09:07:34.368Z,10.80
2023-04-12T09:10:01.690Z,10.70
2023-04-12T09:12:28.634Z,10.50
2023-04-12T09:15:13.603Z,10.60
2023-04-12T09:17:41.895Z,10.50
2023-04-12T09:20:18.178Z,10.50
2023-04-12T09:22:46.801Z,10.60
2023-04-12T09:25:15.089Z,10.50
2023-04-12T09:27:50.887Z,10.60
2023-04-12T09:30:19.379Z,10.60
2023-04-12T09:32:49.344Z,10.60
2023-04-12T09:35:16.550Z,10.60
2023-04-12T09:37:43.435Z,10.80
2023-04-12T09:40:11.160Z,11.10
2023-04-12T09:42:52.427Z,11.10
2023-04-12T09:45:25.393Z,11.20
2023-04-12T09:47:53.991Z,11.50
2023-04-12T09:50:26.627Z,11.70
2023-04-12T09:52:55.117Z,12.00
2023-04-12T09:55:23.560Z,12.00
2023-04-12T09:57:52.385Z,11.90
2023-04-12T10:00:30.068Z,11.80
2023-04-12T10:02:57.505Z,11.90
2023-04-12T10:05:27.399Z,12.30
2023-04-12T10:07:55.377Z,12.20
2023-04-12T10:10:23.577Z,12.10
2023-04-12T10:12:51.144Z,12.00
2023-04-12T10:15:20.902Z,12.10
2023-04-12T10:17:51.436Z,11.90
2023-04-12T10:20:20.624Z,12.10
2023-04-12T10:22:52.530Z,11.80
2023-04-12T10:25:21.771Z,11.90
2023-04-12T10:27:49.605Z,11.90
2023-04-12T10:30:20.634Z,11.70
2023-04-12T10:32:47.659Z,11.70
2023-04-12T10:35:14.671Z,11.60
2023-04-12T10:38:01.355Z,11.60
2023-04-12T10:40:29.629Z,11.30
2023-04-12T10:43:24.745Z,11.20
2023-04-12T10:45:51.624Z,11.00
2023-04-12T10:48:50.817Z,10.90
2023-04-12T10:51:25.680Z,10.80
2023-04-12T10:54:15.494Z,10.70
2023-04-12T10:56:43.875Z,10.80
2023-04-12T10:59:12.226Z,10.90
2023-04-12T11:01:39.977Z,11.20
2023-04-12T11:04:21.989Z,11.40
2023-04-12T11:07:12.246Z,11.50
2023-04-12T11:09:47.037Z,11.60
2023-04-12T11:12:15.675Z,11.80
2023-04-12T11:14:50.709Z,12.20
2023-04-12T11:17:17.976Z,12.30
2023-04-12T11:20:12.736Z,12.30
2023-04-12T11:22:40.954Z,12.40
2023-04-12T11:25:08.172Z,12.40
2023-04-12T11:27:38.005Z,12.50
2023-04-12T11:30:05.932Z,12.90
2023-04-12T11:32:34.744Z,12.90
2023-04-12T11:35:02.189Z,13.10
2023-04-12T11:37:31.267Z,12.80
2023-04-12T11:39:59.144Z,13.00
2023-04-12T11:42:28.181Z,12.80
2023-04-12T11:45:01.535Z,12.70
2023-04-12T11:47:32.111Z,12.60
2023-04-12T11:49:59.988Z,12.30
2023-04-12T11:52:31.691Z,10.10
2023-04-12T11:55:06.756Z,9.40
2023-04-12T11:57:34.833Z,8.90
2023-04-12T12:00:02.425Z,8.70
2023-04-12T12:02:39.304Z,8.70
2023-04-12T12:05:13.734Z,8.90
2023-04-12T12:07:41.173Z,9.30
2023-04-12T12:10:08.954Z,9.80
2023-04-12T12:12:35.810Z,10.30
2023-04-12T12:15:02.988Z,10.80
2023-04-12T12:17:29.872Z,11.00
2023-04-12T12:20:00.070Z,11.00
2023-04-12T12:22:27.038Z,11.10
2023-04-12T12:24:58.819Z,10.90
2023-04-12T12:27:35.326Z,10.90
2023-04-12T12:30:04.596Z,11.20
2023-04-12T12:32:35.856Z,11.60
2023-04-12T12:35:03.800Z,11.90
2023-04-12T12:37:31.373Z,11.80
2023-04-12T12:40:14.330Z,12.30
2023-04-12T12:42:50.057Z,12.20
2023-04-12T12:45:22.638Z,12.10
2023-04-12T12:47:55.157Z,12.50
2023-04-12T12:50:32.458Z,12.30
2023-04-12T12:53:00.879Z,12.70
2023-04-12T12:55:29.627Z,12.90
2023-04-12T13:00:28.873Z,12.90
2023-04-12T13:02:56.664Z,13.00
2023-04-12T13:05:24.118Z,12.80
2023-04-12T13:07:51.400Z,12.70
2023-04-12T13:10:18.322Z,12.70
2023-04-12T13:12:46.221Z,12.60
2023-04-12T13:15:22.446Z,12.30
2023-04-12T13:17:52.992Z,12.00
2023-04-12T13:20:20.297Z,10.80
2023-04-12T13:22:47.708Z,10.00
2023-04-12T13:25:14.768Z,10.20
2023-04-12T13:27:41.793Z,10.20
2023-04-12T13:30:09.463Z,9.80
2023-04-12T13:32:36.918Z,9.90
2023-04-12T13:35:04.627Z,10.20
2023-04-12T13:37:32.472Z,10.60
2023-04-12T13:39:59.524Z,10.30
2023-04-12T13:42:26.515Z,10.50
2023-04-12T13:44:53.449Z,10.50
2023-04-12T13:47:20.438Z,10.70
2023-04-12T13:49:47.547Z,10.80
2023-04-12T13:52:15.008Z,11.10
2023-04-12T13:54:43.442Z,11.30
2023-04-12T13:57:11.269Z,11.20
2023-04-12T13:59:38.358Z,11.50
2023-04-12T14:02:05.606Z,11.70
2023-04-12T14:04:33.098Z,11.50
2023-04-12T14:07:00.862Z,11.70
2023-04-12T14:09:32.212Z,11.70
2023-04-12T14:12:01.743Z,12.00
2023-04-12T14:14:28.739Z,12.30
2023-04-12T14:17:02.047Z,12.60
2023-04-12T14:19:29.394Z,12.60
2023-04-12T14:21:56.840Z,12.50
2023-04-12T14:24:23.776Z,12.60
2023-04-12T14:26:50.735Z,12.60
2023-04-12T14:29:17.806Z,12.70
2023-04-12T14:31:44.802Z,13.10
2023-04-12T14:34:13.462Z,12.90
2023-04-12T14:36:40.958Z,13.40
2023-04-12T14:39:10.453Z,13.20
2023-04-12T14:41:38.810Z,13.60
2023-04-12T14:44:05.809Z,13.60
2023-04-12T14:46:33.068Z,13.20
2023-04-12T14:49:01.546Z,13.20
2023-04-12T14:51:30.344Z,13.00
2023-04-12T14:53:58.246Z,13.00
2023-04-12T14:56:29.846Z,13.10
2023-04-12T14:58:58.348Z,13.10
2023-04-12T15:01:26.101Z,12.90
2023-04-12T15:03:53.856Z,12.70
2023-04-12T15:06:27.187Z,12.60
2023-04-12T15:08:54.848Z,12.60
2023-04-12T15:11:26.705Z,12.70
2023-04-12T15:13:55.265Z,12.80
2023-04-12T15:16:23.194Z,13.00
2023-04-12T15:18:51.833Z,13.30
2023-04-12T15:21:19.282Z,13.50
2023-04-12T15:23:46.659Z,13.30
2023-04-12T15:26:15.261Z,13.10
2023-04-12T15:28:42.695Z,13.00
2023-04-12T15:31:12.044Z,12.90
2023-04-12T15:33:39.258Z,12.90
2023-04-12T15:36:06.712Z,13.10
2023-04-12T15:38:41.239Z,13.10
2023-04-12T15:41:08.891Z,13.30
2023-04-12T15:43:35.906Z,13.40
2023-04-12T15:46:03.622Z,13.40
2023-04-12T15:48:31.271Z,13.30
2023-04-12T15:50:58.497Z,13.30
2023-04-12T15:53:27.465Z,13.50
2023-04-12T15:55:55.250Z,13.60
2023-04-12T15:58:23.841Z,13.20
2023-04-12T16:00:53.079Z,13.20
2023-04-12T16:05:57.314Z,13.00
2023-04-12T16:08:24.359Z,12.80
2023-04-12T16:10:51.346Z,12.90
2023-04-12T16:13:18.730Z,13.10
2023-04-12T16:15:46.272Z,13.00
2023-04-12T16:18:13.449Z,13.20
2023-04-12T16:20:42.939Z,13.50
2023-04-12T16:23:09.888Z,13.30
2023-04-12T16:25:36.750Z,13.20
2023-04-12T16:28:03.896Z,13.00
2023-04-12T16:30:35.161Z,13.10
2023-04-12T16:33:02.166Z,13.20
2023-04-12T16:35:29.203Z,13.30
2023-04-12T16:37:56.410Z,13.30
2023-04-12T16:40:24.695Z,13.20
2023-04-12T16:42:51.787Z,13.30
2023-04-12T16:45:21.818Z,13.30
2023-04-12T16:47:49.261Z,13.20
2023-04-12T16:50:16.540Z,13.30
2023-04-12T16:52:43.496Z,13.20
2023-04-12T16:55:13.736Z,13.00
2023-04-12T16:57:42.895Z,12.90
2023-04-12T17:00:20.660Z,12.70
2023-04-12T17:02:50.226Z,12.60
2023-04-12T17:05:18.209Z,12.70
2023-04-12T17:07:47.895Z,12.60
2023-04-12T17:10:19.976Z,12.60
2023-04-12T17:12:48.145Z,12.70
2023-04-12T17:15:17.322Z,12.40
2023-04-12T17:17:49.936Z,12.60
2023-04-12T17:20:18.615Z,12.60
2023-04-12T17:22:46.382Z,12.70
2023-04-12T17:25:13.378Z,12.40
2023-04-12T17:27:41.245Z,12.00
2023-04-12T17:30:11.175Z,11.80
2023-04-12T17:32:40.306Z,11.70
2023-04-12T17:35:07.899Z,11.60
2023-04-12T17:37:35.974Z,11.80
2023-04-12T17:40:05.091Z,11.90
2023-04-12T17:42:32.114Z,11.80
2023-04-12T17:44:59.159Z,11.70
2023-04-12T17:47:26.047Z,11.50
2023-04-12T17:49:52.947Z,11.40
2023-04-12T17:52:19.917Z,11.40
2023-04-12T17:54:47.174Z,11.30
2023-04-12T17:57:14.407Z,11.10
2023-04-12T17:59:41.794Z,11.10
2023-04-12T18:02:09.203Z,11.10
2023-04-12T18:04:36.861Z,10.90
2023-04-12T18:07:04.690Z,11.00
2023-04-12T18:09:31.559Z,10.90
2023-04-12T18:11:58.464Z,10.90
2023-04-12T18:14:25.929Z,10.80
2023-04-12T18:16:52.746Z,10.80
2023-04-12T18:19:19.617Z,10.70
2023-04-12T18:21:49.527Z,10.60
2023-04-12T18:24:17.027Z,10.50
2023-04-12T18:26:44.517Z,10.50
2023-04-12T18:29:16.087Z,10.40
2023-04-12T18:31:43.152Z,10.40
2023-04-12T18:34:10.173Z,10.30
2023-04-12T18:36:37.286Z,10.20
2023-04-12T18:39:04.730Z,10.30
2023-04-12T18:41:32.013Z,10.20
2023-04-12T18:43:59.317Z,10.10
2023-04-12T18:46:27.018Z,10.00
2023-04-12T18:48:54.823Z,10.00
2023-04-12T18:51:23.295Z,10.00
2023-04-12T18:53:51.252Z,9.90
2023-04-12T18:56:23.290Z,9.80
2023-04-12T18:58:56.237Z,9.70
2023-04-12T19:01:24.927Z,9.60
2023-04-12T19:03:52.534Z,9.60
2023-04-12T19:06:19.782Z,9.50
2023-04-12T19:08:46.909Z,9.50
2023-04-12T19:11:14.016Z,9.50
2023-04-12T19:13:40.863Z,9.50
2023-04-12T19:16:08.101Z,9.50
2023-04-12T19:18:35.425Z,9.50
2023-04-12T19:21:03.408Z,9.40
2023-04-12T19:23:31.442Z,9.50
2023-04-12T19:26:00.316Z,9.40
2023-04-12T19:28:27.846Z,9.40
2023-04-12T19:30:56.911Z,9.40
2023-04-12T19:33:24.816Z,9.40
2023-04-12T19:35:52.318Z,9.40
2023-04-12T19:38:21.085Z,9.40
2023-04-12T19:40:48.238Z,9.20
2023-04-12T19:43:15.458Z,9.10
2023-04-12T19:45:43.230Z,9.00
2023-04-12T19:48:10.155Z,8.90
2023-04-12T19:50:37.223Z,8.80
2023-04-12T19:53:04.928Z,8.70
2023-04-12T19:55:31.990Z,8.60
2023-04-12T19:57:59.229Z,8.50
2023-04-12T20:00:27.336Z,8.30
2023-04-12T20:02:55.219Z,8.30
2023-04-12T20:05:23.982Z,8.40
2023-04-12T20:07:52.807Z,8.40
2023-04-12T20:10:20.219Z,8.50
2023-04-12T20:12:47.285Z,8.50
2023-04-12T20:15:14.440Z,8.50
2023-04-12T20:17:42.559Z,8.50
2023-04-12T20:20:10.887Z,8.60
2023-04-12T20:22:42.038Z,8.70
2023-04-12T20:25:11.081Z,8.80
2023-04-12T20:27:39.084Z,8.80
2023-04-12T20:30:07.358Z,8.90
2023-04-12T20:32:35.978Z,9.00
2023-04-12T20:35:04.236Z,9.00
2023-04-12T20:37:31.169Z,9.10
2023-04-12T20:39:59.371Z,9.20
2023-04-12T20:42:26.525Z,9.20
2023-04-12T20:44:53.644Z,9.30
2023-04-12T20:47:21.206Z,9.40
2023-04-12T20:49:48.133Z,9.50
2023-04-12T20:52:18.806Z,9.60
2023-04-12T20:54:48.326Z,9.60
2023-04-12T20:57:20.130Z,9.60
2023-04-12T20:59:47.178Z,9.70
2023-04-12T21:02:16.344Z,9.70
2023-04-12T21:04:45.151Z,9.60
2023-04-12T21:07:12.682Z,9.40
2023-04-12T21:09:39.628Z,8.90
2023-04-12T21:12:08.799Z,8.80
2023-04-12T21:14:37.857Z,8.60
2023-04-12T21:17:05.810Z,8.60
2023-04-12T21:19:41.014Z,8.60
2023-04-12T21:22:08.782Z,8.50
2023-04-12T21:24:38.335Z,8.40
2023-04-12T21:27:08.562Z,8.30
2023-04-12T21:29:41.212Z,8.30
2023-04-12T21:32:09.060Z,8.20
2023-04-12T21:34:37.563Z,8.20
2023-04-12T21:37:05.480Z,8.10
2023-04-12T21:39:32.955Z,8.10
2023-04-12T21:41:59.883Z,8.10
2023-04-12T21:44:26.892Z,8.10
2023-04-12T21:46:53.731Z,8.10
2023-04-12T21:49:20.616Z,8.10
2023-04-12T21:51:49.226Z,7.90
2023-04-12T21:54:16.655Z,7.70
2023-04-12T21:56:43.721Z,7.70
2023-04-12T21:59:10.721Z,7.80
2023-04-12T22:01:38.125Z,7.80
2023-04-12T22:04:05.292Z,7.80
2023-04-12T22:06:32.218Z,7.90
2023-04-12T22:09:02.548Z,8.00
2023-04-12T22:11:30.558Z,8.00
2023-04-12T22:13:57.919Z,8.00
2023-04-12T22:16:25.010Z,8.00
2023-04-12T22:18:52.993Z,8.10
2023-04-12T22:21:20.735Z,8.20
2023-04-12T22:23:47.680Z,8.30
2023-04-12T22:26:15.346Z,8.30
2023-04-12T22:28:44.410Z,8.30
2023-04-12T22:31:16.488Z,8.20
2023-04-12T22:33:43.946Z,8.20
2023-04-12T22:36:11.036Z,8.20
2023-04-12T22:38:38.459Z,8.00
2023-04-12T22:41:06.549Z,8.10
2023-04-12T22:43:41.819Z,7.90
2023-04-12T22:46:18.822Z,7.90
2023-04-12T22:48:48.416Z,7.70
2023-04-12T22:51:15.433Z,7.70
2023-04-12T22:53:43.540Z,7.60
2023-04-12T22:56:11.305Z,7.50
2023-04-12T22:58:40.350Z,7.50
2023-04-12T23:01:07.557Z,7.50
2023-04-12T23:03:34.725Z,7.50
2023-04-12T23:06:02.091Z,7.50
2023-04-12T23:08:29.326Z,7.30
2023-04-12T23:11:02.859Z,7.20
2023-04-12T23:13:33.840Z,7.30
2023-04-12T23:16:05.663Z,7.30
2023-04-12T23:18:32.870Z,7.30
2023-04-12T23:21:01.646Z,7.40
2023-04-12T23:23:28.657Z,7.50
2023-04-12T23:25:55.580Z,7.60
2023-04-12T23:28:24.396Z,7.60
2023-04-12T23:30:51.940Z,7.60
2023-04-12T23:33:20.946Z,7.70
2023-04-12T23:35:52.398Z,7.70
2023-04-12T23:38:33.618Z,7.70
2023-04-12T23:41:05.724Z,7.80
2023-04-12T23:43:34.316Z,7.70
2023-04-12T23:46:03.149Z,7.40
2023-04-12T23:48:31.607Z,7.40
2023-04-12T23:50:59.165Z,7.40
2023-04-12T23:53:26.004Z,7.40
2023-04-12T23:55:53.657Z,7.40
2023-04-12T23:58:21.566Z,7.40
